Data Viewer
| City | State | Eastern Time | Source | Temp | DewPt | RH | BP | 5 Min Precip | Wind Speed | Wind Dir | 5 Min Wind Max | 5 Min Wind Max Dir |
|---|---|---|---|---|---|---|---|---|---|---|---|---|
| Wilmington (ASOS) | DE | 2026-05-07 02:25 | ASOS | 55 | 52 | 88 | 29.85 | 12 | N | |||
| Wilmington (ASOS) | DE | 2026-05-07 18:05 | ASOS | 66 | 34 | 30 | 29.78 | 3 | WNW | |||
| Wilmington (ASOS) | DE | 2026-05-07 18:35 | ASOS | 64 | 35 | 34 | 29.77 | 9 | NW | |||
| Wilmington (ASOS) | DE | 2026-05-07 18:30 | ASOS | 64 | 34 | 32 | 29.77 | 8 | NW | |||
| Wilmington (ASOS) | DE | 2026-05-07 18:25 | ASOS | 66 | 34 | 30 | 29.77 | |||||
| Wilmington (ASOS) | DE | 2026-05-07 18:20 | ASOS | 66 | 34 | 30 | 29.77 | |||||
| Wilmington (ASOS) | DE | 2026-05-07 18:15 | ASOS | 66 | 34 | 30 | 29.77 | 5 | NW | |||
| Wilmington (ASOS) | DE | 2026-05-07 18:10 | ASOS | 66 | 34 | 30 | 29.78 | 9 | NW | |||
| Wilmington (ASOS) | DE | 2026-05-07 18:00 | ASOS | 66 | 34 | 30 | 29.77 | 8 | NW | |||
| Wilmington (ASOS) | DE | 2026-05-07 18:45 | ASOS | 64 | 34 | 32 | 29.77 | 9 | NW | |||
| Wilmington (ASOS) | DE | 2026-05-07 17:55 | ASOS | 66 | 34 | 30 | 29.77 | 12 | NW | |||
| Wilmington (ASOS) | DE | 2026-05-07 17:51 | ASOS | 67 | 34 | 29 | 29.77 | |||||
| Wilmington (ASOS) | DE | 2026-05-07 17:50 | ASOS | 66 | 34 | 30 | 29.77 | |||||
| Wilmington (ASOS) | DE | 2026-05-07 17:45 | ASOS | 66 | 34 | 30 | 29.78 | 3 | NW | |||
| Wilmington (ASOS) | DE | 2026-05-07 17:40 | ASOS | 66 | 34 | 30 | 29.78 | 6 | NW | |||
| Wilmington (ASOS) | DE | 2026-05-07 17:35 | ASOS | 66 | 34 | 30 | 29.78 | 12 | WNW | |||
| Wilmington (ASOS) | DE | 2026-05-07 18:40 | ASOS | 64 | 34 | 32 | 29.77 | 10 | NW | |||
| Wilmington (ASOS) | DE | 2026-05-07 18:50 | ASOS | 64 | 34 | 32 | 29.77 | 9 | NW | |||
| Wilmington (ASOS) | DE | 2026-05-07 17:25 | ASOS | 66 | 34 | 30 | 29.78 | 6 | NNW | |||
| Wilmington (ASOS) | DE | 2026-05-07 19:35 | ASOS | 61 | 35 | 39 | 29.78 | 8 | NW | |||
| Wilmington (ASOS) | DE | 2026-05-07 20:00 | ASOS | 57 | 35 | 44 | 29.79 | 6 | NW | |||
| Wilmington (ASOS) | DE | 2026-05-07 19:55 | ASOS | 57 | 35 | 44 | 29.79 | 6 | NW | |||
| Wilmington (ASOS) | DE | 2026-05-07 19:51 | ASOS | 59 | 35 | 41 | 29.79 | 7 | NW | |||
| Wilmington (ASOS) | DE | 2026-05-07 19:50 | ASOS | 59 | 35 | 41 | 29.79 | 7 | NW | |||
| Wilmington (ASOS) | DE | 2026-05-07 19:45 | ASOS | 59 | 34 | 39 | 29.78 | 7 | NNW | |||
| Wilmington (ASOS) | DE | 2026-05-07 19:40 | ASOS | 61 | 35 | 39 | 29.78 | 8 | NNW | |||
| Wilmington (ASOS) | DE | 2026-05-07 19:30 | ASOS | 61 | 35 | 39 | 29.78 | 8 | NW | |||
| Wilmington (ASOS) | DE | 2026-05-07 18:51 | ASOS | 64 | 34 | 33 | 29.77 | 9 | WNW | |||
| Wilmington (ASOS) | DE | 2026-05-07 19:25 | ASOS | 63 | 35 | 36 | 29.78 | 9 | NW | |||
| Wilmington (ASOS) | DE | 2026-05-07 19:20 | ASOS | 63 | 34 | 34 | 29.78 | 7 | NW | |||
| Wilmington (ASOS) | DE | 2026-05-07 19:15 | ASOS | 63 | 34 | 34 | 29.78 | 7 | NW | |||
| Wilmington (ASOS) | DE | 2026-05-07 19:10 | ASOS | 63 | 34 | 34 | 29.78 | 8 | NW | |||
| Wilmington (ASOS) | DE | 2026-05-07 19:05 | ASOS | 64 | 35 | 34 | 29.78 | 8 | NW | |||
| Wilmington (ASOS) | DE | 2026-05-07 19:00 | ASOS | 64 | 34 | 32 | 29.78 | 9 | NW | |||
| Wilmington (ASOS) | DE | 2026-05-07 18:55 | ASOS | 64 | 34 | 32 | 29.77 | 9 | WNW | |||
| Wilmington (ASOS) | DE | 2026-05-07 17:30 | ASOS | 68 | 35 | 30 | 29.78 | 10 | WNW | |||
| Wilmington (ASOS) | DE | 2026-05-07 17:20 | ASOS | 66 | 34 | 30 | 29.78 | 9 | NW | |||
| Wilmington (ASOS) | DE | 2026-05-07 20:10 | ASOS | 59 | 34 | 39 | 29.79 | 5 | NW | |||
| Wilmington (ASOS) | DE | 2026-05-07 15:15 | ASOS | 66 | 39 | 37 | 29.79 | 6 | SE | |||
| Wilmington (ASOS) | DE | 2026-05-07 15:45 | ASOS | 66 | 35 | 32 | 29.78 | |||||
| Wilmington (ASOS) | DE | 2026-05-07 15:40 | ASOS | 68 | 35 | 30 | 29.78 | 5 | NE | |||
| Wilmington (ASOS) | DE | 2026-05-07 15:35 | ASOS | 68 | 35 | 30 | 29.79 | 5 | N | |||
| Wilmington (ASOS) | DE | 2026-05-07 15:30 | ASOS | 68 | 35 | 30 | 29.79 | |||||
| Wilmington (ASOS) | DE | 2026-05-07 15:25 | ASOS | 66 | 35 | 32 | 29.78 | 6 | W | |||
| Wilmington (ASOS) | DE | 2026-05-07 15:20 | ASOS | 66 | 39 | 37 | 29.79 | 5 | SW | |||
| Wilmington (ASOS) | DE | 2026-05-07 15:10 | ASOS | 64 | 37 | 37 | 29.79 | 7 | E | |||
| Wilmington (ASOS) | DE | 2026-05-07 15:51 | ASOS | 67 | 36 | 32 | 29.78 | 5 | W | |||
| Wilmington (ASOS) | DE | 2026-05-07 15:05 | ASOS | 64 | 39 | 39 | 29.79 | 3 | E | |||
| Wilmington (ASOS) | DE | 2026-05-07 15:00 | ASOS | 66 | 37 | 35 | 29.80 | |||||
| Wilmington (ASOS) | DE | 2026-05-07 14:51 | ASOS | 67 | 36 | 32 | 29.80 | 3 | NW | |||
| Wilmington (ASOS) | DE | 2026-05-07 14:50 | ASOS | 66 | 37 | 35 | 29.80 | 5 | WNW | |||
| Wilmington (ASOS) | DE | 2026-05-07 14:45 | ASOS | 64 | 35 | 34 | 29.80 | |||||
| Wilmington (ASOS) | DE | 2026-05-07 14:40 | ASOS | 66 | 35 | 32 | 29.81 | 3 | SW | |||
| Wilmington (ASOS) | DE | 2026-05-07 15:50 | ASOS | 66 | 35 | 32 | 29.78 | 3 | W | |||
| Wilmington (ASOS) | DE | 2026-05-07 15:55 | ASOS | 66 | 37 | 35 | 29.77 | 5 | WNW | |||
| Wilmington (ASOS) | DE | 2026-05-07 17:15 | ASOS | 66 | 34 | 30 | 29.78 | 10 | WNW | |||
| Wilmington (ASOS) | DE | 2026-05-07 16:45 | ASOS | 68 | 34 | 28 | 29.77 | 8 | WNW | |||
| Wilmington (ASOS) | DE | 2026-05-07 17:10 | ASOS | 68 | 35 | 30 | 29.78 | 10 | WNW | |||
| Wilmington (ASOS) | DE | 2026-05-07 17:05 | ASOS | 66 | 34 | 30 | 29.78 | 6 | W | |||
| Wilmington (ASOS) | DE | 2026-05-07 17:00 | ASOS | 70 | 36 | 28 | 29.78 | 9 | NW | |||
| Wilmington (ASOS) | DE | 2026-05-07 16:55 | ASOS | 66 | 34 | 30 | 29.77 | |||||
| Wilmington (ASOS) | DE | 2026-05-07 16:51 | ASOS | 66 | 33 | 29 | 29.77 | 0 | N | |||
| Wilmington (ASOS) | DE | 2026-05-07 16:50 | ASOS | 66 | 34 | 30 | 29.77 | 0 | N | |||
| Wilmington (ASOS) | DE | 2026-05-07 16:40 | ASOS | 68 | 34 | 28 | 29.77 | 9 | NW | |||
| Wilmington (ASOS) | DE | 2026-05-07 16:00 | ASOS | 66 | 35 | 32 | 29.77 | 6 | NW | |||
| Wilmington (ASOS) | DE | 2026-05-07 16:35 | ASOS | 68 | 34 | 28 | 29.77 | |||||
| Wilmington (ASOS) | DE | 2026-05-07 16:30 | ASOS | 68 | 34 | 28 | 29.77 | 0 | N | |||
| Wilmington (ASOS) | DE | 2026-05-07 16:25 | ASOS | 68 | 34 | 28 | 29.77 | 3 | NNE | |||
| Wilmington (ASOS) | DE | 2026-05-07 16:20 | ASOS | 66 | 34 | 30 | 29.78 | 0 | N | |||
| Wilmington (ASOS) | DE | 2026-05-07 16:15 | ASOS | 66 | 35 | 32 | 29.77 | 5 | N | |||
| Wilmington (ASOS) | DE | 2026-05-07 16:10 | ASOS | 66 | 35 | 32 | 29.77 | 6 | NE | |||
| Wilmington (ASOS) | DE | 2026-05-07 16:05 | ASOS | 66 | 34 | 30 | 29.77 | 3 | N | |||
| Wilmington (ASOS) | DE | 2026-05-07 20:05 | ASOS | 57 | 35 | 44 | 29.79 | 5 | NW | |||
| Wilmington (ASOS) | DE | 2026-05-07 20:15 | ASOS | 61 | 34 | 36 | 29.79 | 3 | NW | |||
| Wilmington (ASOS) | DE | 2026-05-07 14:30 | ASOS | 66 | 35 | 32 | 29.81 | 12 | W | |||
| Wilmington (ASOS) | DE | 2026-05-07 23:55 | ASOS | 55 | 44 | 67 | 29.83 | 10 | WSW | |||
| Wilmington (ASOS) | DE | 2026-05-08 00:25 | ASOS | 55 | 44 | 67 | 29.83 | 12 | WSW | |||
| Wilmington (ASOS) | DE | 2026-05-08 00:20 | ASOS | 55 | 44 | 67 | 29.83 | 10 | WSW | |||
| Wilmington (ASOS) | DE | 2026-05-08 00:15 | ASOS | 55 | 44 | 67 | 29.83 | 12 | W | |||
| Wilmington (ASOS) | DE | 2026-05-08 00:10 | ASOS | 55 | 44 | 67 | 29.83 | 9 | W | |||
| Wilmington (ASOS) | DE | 2026-05-08 00:05 | ASOS | 55 | 44 | 67 | 29.83 | 9 | WSW | |||
| Wilmington (ASOS) | DE | 2026-05-08 00:00 | ASOS | 55 | 44 | 67 | 29.83 | 9 | WSW | |||
| Wilmington (ASOS) | DE | 2026-05-07 23:51 | ASOS | 55 | 44 | 66 | 29.83 | 10 | WSW | |||
| Wilmington (ASOS) | DE | 2026-05-08 00:35 | ASOS | 55 | 44 | 67 | 29.83 | 9 | WSW | |||
| Wilmington (ASOS) | DE | 2026-05-07 23:50 | ASOS | 55 | 44 | 67 | 29.83 | 10 | WSW | |||
| Wilmington (ASOS) | DE | 2026-05-07 23:45 | ASOS | 55 | 44 | 67 | 29.83 | 8 | WSW | |||
| Wilmington (ASOS) | DE | 2026-05-07 23:40 | ASOS | 54 | 45 | 71 | 29.83 | 8 | WSW | |||
| Wilmington (ASOS) | DE | 2026-05-07 23:35 | ASOS | 54 | 43 | 67 | 29.83 | 9 | WSW | |||
| Wilmington (ASOS) | DE | 2026-05-07 23:30 | ASOS | 54 | 43 | 67 | 29.83 | 10 | WSW | |||
| Wilmington (ASOS) | DE | 2026-05-07 23:25 | ASOS | 54 | 43 | 67 | 29.83 | 8 | WSW | |||
| Wilmington (ASOS) | DE | 2026-05-08 00:30 | ASOS | 55 | 44 | 67 | 29.83 | 9 | WSW | |||
| Wilmington (ASOS) | DE | 2026-05-08 00:40 | ASOS | 55 | 44 | 67 | 29.84 | 10 | WSW | |||
| Wilmington (ASOS) | DE | 2026-05-07 23:15 | ASOS | 54 | 43 | 67 | 29.83 | 10 | WSW | |||
| Wilmington (ASOS) | DE | 2026-05-08 01:35 | ASOS | 55 | 44 | 67 | 29.84 | 12 | WSW | |||
| Wilmington (ASOS) | DE | 2026-05-08 02:10 | ASOS | 54 | 43 | 67 | 29.85 | 14 | W | |||
| Wilmington (ASOS) | DE | 2026-05-08 02:05 | ASOS | 54 | 45 | 71 | 29.85 | 9 | W | |||
| Wilmington (ASOS) | DE | 2026-05-08 02:00 | ASOS | 54 | 45 | 71 | 29.85 | 9 | W | |||
| Wilmington (ASOS) | DE | 2026-05-08 01:51 | ASOS | 54 | 44 | 69 | 29.85 | 10 | W | |||
| Wilmington (ASOS) | DE | 2026-05-08 01:50 | ASOS | 54 | 45 | 71 | 29.85 | 10 | W | |||
| Wilmington (ASOS) | DE | 2026-05-08 01:45 | ASOS | 54 | 45 | 71 | 29.84 | 12 | WSW | |||
| Wilmington (ASOS) | DE | 2026-05-08 01:30 | ASOS | 55 | 44 | 67 | 29.84 | 10 | WSW | |||
| Wilmington (ASOS) | DE | 2026-05-08 00:45 | ASOS | 55 | 44 | 67 | 29.84 | 10 | W | |||
| Wilmington (ASOS) | DE | 2026-05-08 01:25 | ASOS | 55 | 44 | 67 | 29.84 | 12 | WSW | |||
| Wilmington (ASOS) | DE | 2026-05-08 01:20 | ASOS | 55 | 44 | 67 | 29.84 | 10 | WSW | |||
| Wilmington (ASOS) | DE | 2026-05-08 01:15 | ASOS | 55 | 44 | 67 | 29.84 | 12 | WSW | |||
| Wilmington (ASOS) | DE | 2026-05-08 01:10 | ASOS | 55 | 44 | 67 | 29.84 | 12 | WSW | |||
| Wilmington (ASOS) | DE | 2026-05-08 01:05 | ASOS | 55 | 44 | 67 | 29.84 | 10 | WSW | |||
| Wilmington (ASOS) | DE | 2026-05-08 00:51 | ASOS | 56 | 44 | 64 | 29.84 | 12 | W | |||
| Wilmington (ASOS) | DE | 2026-05-08 00:50 | ASOS | 55 | 44 | 67 | 29.84 | 10 | W | |||
| Wilmington (ASOS) | DE | 2026-05-07 23:20 | ASOS | 54 | 43 | 67 | 29.83 | 9 | WSW | |||
| Wilmington (ASOS) | DE | 2026-05-07 23:10 | ASOS | 54 | 43 | 67 | 29.83 | 10 | WSW | |||
| Wilmington (ASOS) | DE | 2026-05-07 20:20 | ASOS | 61 | 34 | 36 | 29.79 | 3 | WNW | |||
| Wilmington (ASOS) | DE | 2026-05-07 21:00 | ASOS | 57 | 35 | 44 | 29.80 | 3 | WSW | |||
| Wilmington (ASOS) | DE | 2026-05-07 21:30 | ASOS | 55 | 35 | 47 | 29.81 | 10 | WSW | |||
| Wilmington (ASOS) | DE | 2026-05-07 21:25 | ASOS | 57 | 37 | 47 | 29.81 | 6 | WSW | |||
| Wilmington (ASOS) | DE | 2026-05-07 21:20 | ASOS | 57 | 37 | 47 | 29.81 | 5 | WSW | |||
| Wilmington (ASOS) | DE | 2026-05-07 21:15 | ASOS | 57 | 35 | 44 | 29.81 | 5 | WSW | |||
| Wilmington (ASOS) | DE | 2026-05-07 21:10 | ASOS | 57 | 35 | 44 | 29.80 | 5 | WSW | |||
| Wilmington (ASOS) | DE | 2026-05-07 21:05 | ASOS | 57 | 35 | 44 | 29.80 | 5 | WSW | |||
| Wilmington (ASOS) | DE | 2026-05-07 20:55 | ASOS | 61 | 35 | 39 | 29.80 | 3 | WSW | |||
| Wilmington (ASOS) | DE | 2026-05-07 21:40 | ASOS | 57 | 43 | 59 | 29.82 | 14 | WSW | |||
| Wilmington (ASOS) | DE | 2026-05-07 20:51 | ASOS | 60 | 35 | 39 | 29.80 | 0 | N | |||
| Wilmington (ASOS) | DE | 2026-05-07 20:50 | ASOS | 59 | 35 | 41 | 29.80 | 0 | N | |||
| Wilmington (ASOS) | DE | 2026-05-07 20:45 | ASOS | 61 | 34 | 36 | 29.80 | 0 | N | |||
| Wilmington (ASOS) | DE | 2026-05-07 20:40 | ASOS | 61 | 34 | 36 | 29.80 | 0 | N | |||
| Wilmington (ASOS) | DE | 2026-05-07 20:35 | ASOS | 61 | 34 | 36 | 29.80 | 3 | W | |||
| Wilmington (ASOS) | DE | 2026-05-07 20:30 | ASOS | 61 | 34 | 36 | 29.79 | 3 | WNW | |||
| Wilmington (ASOS) | DE | 2026-05-07 20:25 | ASOS | 61 | 34 | 36 | 29.79 | 3 | WNW | |||
| Wilmington (ASOS) | DE | 2026-05-07 21:35 | ASOS | 57 | 39 | 51 | 29.82 | 13 | WSW | |||
| Wilmington (ASOS) | DE | 2026-05-07 21:45 | ASOS | 55 | 43 | 62 | 29.82 | 13 | WSW | |||
| Wilmington (ASOS) | DE | 2026-05-07 23:05 | ASOS | 54 | 43 | 67 | 29.83 | 13 | WSW | |||
| Wilmington (ASOS) | DE | 2026-05-07 22:35 | ASOS | 55 | 44 | 67 | 29.83 | 10 | WSW | |||
| Wilmington (ASOS) | DE | 2026-05-07 23:00 | ASOS | 54 | 43 | 67 | 29.83 | 10 | WSW | |||
| Wilmington (ASOS) | DE | 2026-05-07 22:55 | ASOS | 54 | 43 | 67 | 29.83 | 10 | WSW | |||
| Wilmington (ASOS) | DE | 2026-05-07 22:51 | ASOS | 54 | 43 | 66 | 29.83 | 9 | WSW | |||
| Wilmington (ASOS) | DE | 2026-05-07 22:50 | ASOS | 55 | 43 | 62 | 29.83 | 10 | WSW | |||
| Wilmington (ASOS) | DE | 2026-05-07 22:45 | ASOS | 55 | 43 | 62 | 29.83 | 12 | WSW | |||
| Wilmington (ASOS) | DE | 2026-05-07 22:40 | ASOS | 55 | 43 | 62 | 29.83 | 12 | WSW | |||
| Wilmington (ASOS) | DE | 2026-05-07 22:30 | ASOS | 55 | 44 | 67 | 29.83 | 10 | SW | |||
| Wilmington (ASOS) | DE | 2026-05-07 21:50 | ASOS | 55 | 43 | 62 | 29.82 | 13 | WSW | |||
| Wilmington (ASOS) | DE | 2026-05-07 22:25 | ASOS | 55 | 44 | 67 | 29.83 | 13 | SW | |||
| Wilmington (ASOS) | DE | 2026-05-07 22:20 | ASOS | 55 | 44 | 67 | 29.83 | 13 | SW | |||
| Wilmington (ASOS) | DE | 2026-05-07 22:15 | ASOS | 55 | 44 | 67 | 29.83 | 13 | WSW | |||
| Wilmington (ASOS) | DE | 2026-05-07 22:10 | ASOS | 55 | 44 | 67 | 29.83 | 13 | SW | |||
| Wilmington (ASOS) | DE | 2026-05-07 22:05 | ASOS | 55 | 44 | 67 | 29.83 | 12 | SW | |||
| Wilmington (ASOS) | DE | 2026-05-07 22:00 | ASOS | 55 | 44 | 67 | 29.83 | 12 | WSW | |||
| Wilmington (ASOS) | DE | 2026-05-07 21:51 | ASOS | 56 | 44 | 64 | 29.82 | 12 | WSW | |||
| Wilmington (ASOS) | DE | 2026-05-07 14:35 | ASOS | 66 | 35 | 32 | 29.81 | 6 | W | |||
| Wilmington (ASOS) | DE | 2026-05-07 14:25 | ASOS | 64 | 35 | 34 | 29.82 | 6 | NW | |||
| Wilmington (ASOS) | DE | 2026-05-07 02:30 | ASOS | 55 | 52 | 88 | 29.85 | 8 | N | |||
| Wilmington (ASOS) | DE | 2026-05-07 05:50 | ASOS | 52 | 48 | 87 | 29.87 | 3 | NW | |||
| Wilmington (ASOS) | DE | 2026-05-07 06:15 | ASOS | 52 | 48 | 87 | 29.87 | 3 | WSW | |||
| Wilmington (ASOS) | DE | 2026-05-07 06:10 | ASOS | 52 | 48 | 87 | 29.87 | 3 | WSW | |||
| Wilmington (ASOS) | DE | 2026-05-07 06:05 | ASOS | 52 | 48 | 87 | 29.87 | 3 | WSW | |||
| Wilmington (ASOS) | DE | 2026-05-07 06:00 | ASOS | 52 | 48 | 87 | 29.87 | 0 | N | |||
| Wilmington (ASOS) | DE | 2026-05-07 05:55 | ASOS | 52 | 48 | 87 | 29.87 | 3 | WNW | |||
| Wilmington (ASOS) | DE | 2026-05-07 05:51 | ASOS | 52 | 48 | 86 | 29.87 | 3 | NW | |||
| Wilmington (ASOS) | DE | 2026-05-07 05:45 | ASOS | 52 | 48 | 87 | 29.87 | 5 | NW | |||
| Wilmington (ASOS) | DE | 2026-05-07 06:25 | ASOS | 52 | 48 | 87 | 29.87 | 0 | N | |||
| Wilmington (ASOS) | DE | 2026-05-07 05:40 | ASOS | 52 | 48 | 87 | 29.87 | 3 | WNW | |||
| Wilmington (ASOS) | DE | 2026-05-07 05:35 | ASOS | 52 | 46 | 82 | 29.87 | 3 | NW | |||
| Wilmington (ASOS) | DE | 2026-05-07 05:30 | ASOS | 52 | 46 | 82 | 29.86 | 0 | N | |||
| Wilmington (ASOS) | DE | 2026-05-07 05:25 | ASOS | 52 | 46 | 82 | 29.87 | 3 | NNW | |||
| Wilmington (ASOS) | DE | 2026-05-07 05:20 | ASOS | 52 | 46 | 82 | 29.86 | 3 | NNW | |||
| Wilmington (ASOS) | DE | 2026-05-07 05:15 | ASOS | 52 | 46 | 82 | 29.86 | 3 | NNW | |||
| Wilmington (ASOS) | DE | 2026-05-07 06:20 | ASOS | 52 | 48 | 87 | 29.87 | 0 | N | |||
| Wilmington (ASOS) | DE | 2026-05-07 06:30 | ASOS | 52 | 48 | 87 | 29.87 | 0 | N | |||
| Wilmington (ASOS) | DE | 2026-05-07 05:05 | ASOS | 52 | 46 | 82 | 29.86 | 3 | NNW | |||
| Wilmington (ASOS) | DE | 2026-05-07 07:20 | ASOS | 54 | 48 | 82 | 29.89 | 3 | W | |||
| Wilmington (ASOS) | DE | 2026-05-07 07:50 | ASOS | 54 | 48 | 82 | 29.89 | 3 | WNW | |||
| Wilmington (ASOS) | DE | 2026-05-07 07:45 | ASOS | 54 | 48 | 82 | 29.89 | 5 | W | |||
| Wilmington (ASOS) | DE | 2026-05-07 07:40 | ASOS | 54 | 48 | 82 | 29.89 | 3 | W | |||
| Wilmington (ASOS) | DE | 2026-05-07 07:35 | ASOS | 54 | 48 | 82 | 29.89 | 3 | W | |||
| Wilmington (ASOS) | DE | 2026-05-07 07:30 | ASOS | 54 | 48 | 82 | 29.89 | 3 | WNW | |||
| Wilmington (ASOS) | DE | 2026-05-07 07:25 | ASOS | 54 | 48 | 82 | 29.89 | 5 | W | |||
| Wilmington (ASOS) | DE | 2026-05-07 07:15 | ASOS | 54 | 48 | 82 | 29.89 | 3 | WSW | |||
| Wilmington (ASOS) | DE | 2026-05-07 06:35 | ASOS | 54 | 48 | 82 | 29.87 | 3 | W | |||
| Wilmington (ASOS) | DE | 2026-05-07 07:10 | ASOS | 54 | 48 | 82 | 29.89 | 5 | WSW | |||
| Wilmington (ASOS) | DE | 2026-05-07 07:05 | ASOS | 54 | 48 | 82 | 29.89 | 5 | WSW | |||
| Wilmington (ASOS) | DE | 2026-05-07 07:00 | ASOS | 54 | 48 | 82 | 29.88 | 0 | N | |||
| Wilmington (ASOS) | DE | 2026-05-07 06:51 | ASOS | 53 | 48 | 83 | 29.88 | |||||
| Wilmington (ASOS) | DE | 2026-05-07 06:50 | ASOS | 54 | 48 | 82 | 29.88 | |||||
| Wilmington (ASOS) | DE | 2026-05-07 06:45 | ASOS | 54 | 48 | 82 | 29.88 | |||||
| Wilmington (ASOS) | DE | 2026-05-07 06:40 | ASOS | 54 | 48 | 82 | 29.88 | 3 | W | |||
| Wilmington (ASOS) | DE | 2026-05-07 05:10 | ASOS | 52 | 46 | 82 | 29.86 | 3 | NNW | |||
| Wilmington (ASOS) | DE | 2026-05-07 05:00 | ASOS | 54 | 46 | 77 | 29.86 | 0 | N | |||
| Wilmington (ASOS) | DE | 2026-05-07 07:55 | ASOS | 54 | 48 | 82 | 29.90 | 5 | WNW | |||
| Wilmington (ASOS) | DE | 2026-05-07 03:00 | ASOS | 55 | 50 | 82 | 29.84 | 12 | N | |||
| Wilmington (ASOS) | DE | 2026-05-07 03:27 | ASOS | 54 | 49 | 83 | 29.85 | 12 | N | |||
| Wilmington (ASOS) | DE | 2026-05-07 03:25 | ASOS | 54 | 50 | 88 | 29.84 | 10 | N | |||
| Wilmington (ASOS) | DE | 2026-05-07 03:20 | ASOS | 54 | 50 | 88 | 29.85 | 12 | N | |||
| Wilmington (ASOS) | DE | 2026-05-07 03:15 | ASOS | 54 | 50 | 88 | 29.85 | 10 | N | |||
| Wilmington (ASOS) | DE | 2026-05-07 03:10 | ASOS | 55 | 50 | 82 | 29.84 | 12 | N | |||
| Wilmington (ASOS) | DE | 2026-05-07 03:05 | ASOS | 55 | 50 | 82 | 29.85 | 14 | N | |||
| Wilmington (ASOS) | DE | 2026-05-07 02:55 | ASOS | 55 | 50 | 82 | 29.85 | 14 | N | |||
| Wilmington (ASOS) | DE | 2026-05-07 03:35 | ASOS | 54 | 48 | 82 | 29.85 | 10 | N | |||
| Wilmington (ASOS) | DE | 2026-05-07 02:51 | ASOS | 55 | 51 | 86 | 29.85 | 10 | N | |||
| Wilmington (ASOS) | DE | 2026-05-07 02:50 | ASOS | 55 | 52 | 88 | 29.85 | 10 | N | |||
| Wilmington (ASOS) | DE | 2026-05-07 02:49 | ASOS | 55 | 52 | 88 | 29.85 | 12 | N | |||
| Wilmington (ASOS) | DE | 2026-05-07 02:45 | ASOS | 55 | 52 | 88 | 29.85 | 13 | N | |||
| Wilmington (ASOS) | DE | 2026-05-07 02:40 | ASOS | 55 | 52 | 88 | 29.85 | 12 | N | |||
| Wilmington (ASOS) | DE | 2026-05-07 02:35 | ASOS | 55 | 52 | 88 | 29.85 | 12 | N | |||
| Wilmington (ASOS) | DE | 2026-05-07 03:30 | ASOS | 54 | 48 | 82 | 29.85 | 10 | N | |||
| Wilmington (ASOS) | DE | 2026-05-07 03:40 | ASOS | 54 | 48 | 82 | 29.84 | 12 | N | |||
| Wilmington (ASOS) | DE | 2026-05-07 04:55 | ASOS | 54 | 46 | 77 | 29.85 | 5 | N | |||
| Wilmington (ASOS) | DE | 2026-05-07 04:25 | ASOS | 54 | 46 | 77 | 29.84 | 9 | N | |||
| Wilmington (ASOS) | DE | 2026-05-07 04:51 | ASOS | 53 | 47 | 80 | 29.85 | 5 | N | |||
| Wilmington (ASOS) | DE | 2026-05-07 04:50 | ASOS | 52 | 46 | 82 | 29.84 | 6 | N | |||
| Wilmington (ASOS) | DE | 2026-05-07 04:45 | ASOS | 52 | 46 | 82 | 29.84 | 6 | N | |||
| Wilmington (ASOS) | DE | 2026-05-07 04:40 | ASOS | 52 | 46 | 82 | 29.84 | 8 | N | |||
| Wilmington (ASOS) | DE | 2026-05-07 04:35 | ASOS | 54 | 46 | 77 | 29.84 | 9 | N | |||
| Wilmington (ASOS) | DE | 2026-05-07 04:30 | ASOS | 54 | 46 | 77 | 29.84 | 7 | N | |||
| Wilmington (ASOS) | DE | 2026-05-07 04:20 | ASOS | 54 | 46 | 77 | 29.85 | 7 | N | |||
| Wilmington (ASOS) | DE | 2026-05-07 03:45 | ASOS | 54 | 48 | 82 | 29.85 | 9 | N | |||
| Wilmington (ASOS) | DE | 2026-05-07 04:15 | ASOS | 54 | 46 | 77 | 29.84 | 7 | N | |||
| Wilmington (ASOS) | DE | 2026-05-07 04:10 | ASOS | 54 | 48 | 82 | 29.85 | 9 | N | |||
| Wilmington (ASOS) | DE | 2026-05-07 04:05 | ASOS | 54 | 48 | 82 | 29.84 | 9 | N | |||
| Wilmington (ASOS) | DE | 2026-05-07 04:00 | ASOS | 54 | 48 | 82 | 29.85 | 8 | N | |||
| Wilmington (ASOS) | DE | 2026-05-07 03:55 | ASOS | 54 | 48 | 82 | 29.85 | 9 | N | |||
| Wilmington (ASOS) | DE | 2026-05-07 03:51 | ASOS | 53 | 48 | 83 | 29.84 | 9 | N | |||
| Wilmington (ASOS) | DE | 2026-05-07 03:50 | ASOS | 54 | 48 | 82 | 29.84 | 9 | N | |||
| Wilmington (ASOS) | DE | 2026-05-07 07:51 | ASOS | 54 | 50 | 86 | 29.90 | 3 | WNW | |||
| Wilmington (ASOS) | DE | 2026-05-07 08:00 | ASOS | 54 | 48 | 82 | 29.90 | 6 | WNW | |||
| Wilmington (ASOS) | DE | 2026-05-07 14:20 | ASOS | 66 | 35 | 32 | 29.82 | 7 | WNW | |||
| Wilmington (ASOS) | DE | 2026-05-07 11:51 | ASOS | 58 | 40 | 51 | 29.87 | 6 | ENE | |||
| Wilmington (ASOS) | DE | 2026-05-07 12:25 | ASOS | 63 | 41 | 45 | 29.86 | 5 | NW | |||
| Wilmington (ASOS) | DE | 2026-05-07 12:20 | ASOS | 61 | 39 | 45 | 29.87 | 6 | N | |||
| Wilmington (ASOS) | DE | 2026-05-07 12:15 | ASOS | 61 | 39 | 45 | 29.87 | 7 | N | |||
| Wilmington (ASOS) | DE | 2026-05-07 12:10 | ASOS | 61 | 41 | 48 | 29.87 | 0 | N | |||
| Wilmington (ASOS) | DE | 2026-05-07 12:05 | ASOS | 61 | 41 | 48 | 29.87 | 7 | NW | |||
| Wilmington (ASOS) | DE | 2026-05-07 12:00 | ASOS | 59 | 39 | 48 | 29.87 | 7 | N | |||
| Wilmington (ASOS) | DE | 2026-05-07 11:50 | ASOS | 57 | 39 | 51 | 29.87 | 6 | ENE | |||
| Wilmington (ASOS) | DE | 2026-05-07 12:40 | ASOS | 61 | 37 | 42 | 29.86 | 0 | N | |||
| Wilmington (ASOS) | DE | 2026-05-07 11:45 | ASOS | 57 | 39 | 51 | 29.87 | 6 | N | |||
| Wilmington (ASOS) | DE | 2026-05-07 11:40 | ASOS | 57 | 39 | 51 | 29.88 | 8 | NNW | |||
| Wilmington (ASOS) | DE | 2026-05-07 11:35 | ASOS | 57 | 39 | 51 | 29.87 | 7 | N | |||
| Wilmington (ASOS) | DE | 2026-05-07 11:30 | ASOS | 57 | 39 | 51 | 29.88 | 6 | N | |||
| Wilmington (ASOS) | DE | 2026-05-07 11:25 | ASOS | 57 | 39 | 51 | 29.88 | 6 | NNW | |||
| Wilmington (ASOS) | DE | 2026-05-07 11:20 | ASOS | 57 | 39 | 51 | 29.88 | 10 | NNW | |||
| Wilmington (ASOS) | DE | 2026-05-07 12:30 | ASOS | 63 | 39 | 42 | 29.86 | 6 | NNE | |||
| Wilmington (ASOS) | DE | 2026-05-07 12:45 | ASOS | 63 | 39 | 42 | 29.85 | 5 | ENE | |||
| Wilmington (ASOS) | DE | 2026-05-07 11:10 | ASOS | 57 | 39 | 51 | 29.89 | 13 | N | |||
| Wilmington (ASOS) | DE | 2026-05-07 13:40 | ASOS | 64 | 37 | 37 | 29.82 | 3 | N | |||
| Wilmington (ASOS) | DE | 2026-05-07 14:15 | ASOS | 66 | 37 | 35 | 29.81 | 6 | ENE | |||
| Wilmington (ASOS) | DE | 2026-05-07 14:05 | ASOS | 64 | 35 | 34 | 29.81 | 0 | N | |||
| Wilmington (ASOS) | DE | 2026-05-07 14:00 | ASOS | 66 | 37 | 35 | 29.81 | 8 | N | |||
| Wilmington (ASOS) | DE | 2026-05-07 13:51 | ASOS | 65 | 38 | 37 | 29.81 | 6 | ENE | |||
| Wilmington (ASOS) | DE | 2026-05-07 13:50 | ASOS | 64 | 37 | 37 | 29.81 | 7 | ENE | |||
| Wilmington (ASOS) | DE | 2026-05-07 13:45 | ASOS | 64 | 37 | 37 | 29.82 | 0 | N | |||
| Wilmington (ASOS) | DE | 2026-05-07 13:35 | ASOS | 64 | 35 | 34 | 29.83 | 0 | N | |||
| Wilmington (ASOS) | DE | 2026-05-07 12:51 | ASOS | 62 | 39 | 43 | 29.85 | 5 | N | |||
| Wilmington (ASOS) | DE | 2026-05-07 13:30 | ASOS | 66 | 39 | 37 | 29.83 | 7 | N | |||
| Wilmington (ASOS) | DE | 2026-05-07 13:25 | ASOS | 64 | 37 | 37 | 29.83 | 8 | NNE | |||
| Wilmington (ASOS) | DE | 2026-05-07 13:20 | ASOS | 63 | 37 | 39 | 29.83 | 0 | N | |||
| Wilmington (ASOS) | DE | 2026-05-07 13:15 | ASOS | 63 | 39 | 42 | 29.84 | 3 | NNW | |||
| Wilmington (ASOS) | DE | 2026-05-07 13:10 | ASOS | 63 | 39 | 42 | 29.84 | 5 | WNW | |||
| Wilmington (ASOS) | DE | 2026-05-07 13:05 | ASOS | 63 | 41 | 45 | 29.84 | 7 | WNW | |||
| Wilmington (ASOS) | DE | 2026-05-07 13:00 | ASOS | 63 | 39 | 42 | 29.84 | 6 | NW | |||
| Wilmington (ASOS) | DE | 2026-05-07 11:15 | ASOS | 57 | 39 | 51 | 29.89 | 10 | NW | |||
| Wilmington (ASOS) | DE | 2026-05-07 11:05 | ASOS | 57 | 39 | 51 | 29.89 | 10 | N | |||
| Wilmington (ASOS) | DE | 2026-05-07 08:05 | ASOS | 54 | 48 | 82 | 29.90 | 6 | WNW | |||
| Wilmington (ASOS) | DE | 2026-05-07 08:50 | ASOS | 55 | 46 | 72 | 29.91 | 10 | NNW | |||
| Wilmington (ASOS) | DE | 2026-05-07 09:20 | ASOS | 55 | 43 | 62 | 29.91 | 9 | NNW | |||
| Wilmington (ASOS) | DE | 2026-05-07 09:15 | ASOS | 55 | 44 | 67 | 29.90 | 10 | NNW | |||
| Wilmington (ASOS) | DE | 2026-05-07 09:10 | ASOS | 54 | 45 | 71 | 29.90 | 12 | NNW | |||
| Wilmington (ASOS) | DE | 2026-05-07 09:05 | ASOS | 54 | 45 | 71 | 29.90 | 12 | NNW | |||
| Wilmington (ASOS) | DE | 2026-05-07 09:00 | ASOS | 54 | 45 | 71 | 29.90 | 10 | NNW | |||
| Wilmington (ASOS) | DE | 2026-05-07 08:51 | ASOS | 55 | 46 | 72 | 29.91 | 8 | NNW | |||
| Wilmington (ASOS) | DE | 2026-05-07 08:45 | ASOS | 54 | 46 | 77 | 29.90 | 9 | NNW | |||
| Wilmington (ASOS) | DE | 2026-05-07 09:30 | ASOS | 55 | 43 | 62 | 29.91 | 8 | N | |||
| Wilmington (ASOS) | DE | 2026-05-07 08:40 | ASOS | 54 | 46 | 77 | 29.90 | 8 | NNW | |||
| Wilmington (ASOS) | DE | 2026-05-07 08:35 | ASOS | 54 | 48 | 82 | 29.90 | 8 | NW | |||
| Wilmington (ASOS) | DE | 2026-05-07 08:30 | ASOS | 54 | 48 | 82 | 29.90 | 8 | WNW | |||
| Wilmington (ASOS) | DE | 2026-05-07 08:25 | ASOS | 54 | 48 | 82 | 29.90 | 8 | NW | |||
| Wilmington (ASOS) | DE | 2026-05-07 08:20 | ASOS | 54 | 48 | 82 | 29.90 | 8 | WNW | |||
| Wilmington (ASOS) | DE | 2026-05-07 08:15 | ASOS | 54 | 48 | 82 | 29.90 | 7 | NW | |||
| Wilmington (ASOS) | DE | 2026-05-07 08:10 | ASOS | 54 | 48 | 82 | 29.90 | 7 | NW | |||
| Wilmington (ASOS) | DE | 2026-05-07 09:25 | ASOS | 55 | 43 | 62 | 29.91 | 9 | NNW | |||
| Wilmington (ASOS) | DE | 2026-05-07 09:35 | ASOS | 55 | 43 | 62 | 29.91 | 9 | NNW | |||
| Wilmington (ASOS) | DE | 2026-05-07 11:00 | ASOS | 57 | 39 | 51 | 29.89 | 10 | NNW | |||
| Wilmington (ASOS) | DE | 2026-05-07 10:30 | ASOS | 57 | 43 | 59 | 29.90 | 10 | NNW | |||
| Wilmington (ASOS) | DE | 2026-05-07 10:55 | ASOS | 57 | 39 | 51 | 29.89 | 12 | NNW | |||
| Wilmington (ASOS) | DE | 2026-05-07 10:51 | ASOS | 57 | 39 | 51 | 29.89 | 12 | NNW | |||
| Wilmington (ASOS) | DE | 2026-05-07 10:50 | ASOS | 57 | 39 | 51 | 29.89 | 12 | NNW | |||
| Wilmington (ASOS) | DE | 2026-05-07 10:45 | ASOS | 57 | 39 | 51 | 29.90 | 12 | NNW | |||
| Wilmington (ASOS) | DE | 2026-05-07 10:40 | ASOS | 57 | 39 | 51 | 29.90 | 10 | NNW | |||
| Wilmington (ASOS) | DE | 2026-05-07 10:35 | ASOS | 57 | 39 | 51 | 29.90 | 10 | NNW | |||
| Wilmington (ASOS) | DE | 2026-05-07 10:25 | ASOS | 57 | 43 | 59 | 29.90 | 9 | NNW | |||
| Wilmington (ASOS) | DE | 2026-05-07 09:40 | ASOS | 55 | 41 | 58 | 29.91 | 10 | NNW | |||
| Wilmington (ASOS) | DE | 2026-05-07 10:20 | ASOS | 57 | 41 | 55 | 29.90 | 8 | N | |||
| Wilmington (ASOS) | DE | 2026-05-07 10:15 | ASOS | 57 | 43 | 59 | 29.90 | 10 | NNW | |||
| Wilmington (ASOS) | DE | 2026-05-07 10:00 | ASOS | 55 | 41 | 58 | 29.90 | 10 | NNW | |||
| Wilmington (ASOS) | DE | 2026-05-07 09:55 | ASOS | 55 | 41 | 58 | 29.90 | 12 | NNW | |||
| Wilmington (ASOS) | DE | 2026-05-07 09:51 | ASOS | 56 | 41 | 57 | 29.90 | 9 | NNW | |||
| Wilmington (ASOS) | DE | 2026-05-07 09:50 | ASOS | 55 | 41 | 58 | 29.90 | 10 | NNW | |||
| Wilmington (ASOS) | DE | 2026-05-07 09:45 | ASOS | 55 | 41 | 58 | 29.91 | 12 | NNW | |||
| Wilmington (ASOS) | DE | 2026-05-08 02:15 | ASOS | 54 | 43 | 67 | 29.85 | 13 | W |
data collection created in 0.04344916343689 (queried in 0.009854) rendered in: 0.00049495697021484

